createdAt,value
2023-05-05T00:01:02.467Z,93859.34
2023-05-05T00:03:30.541Z,93853.22
2023-05-05T00:05:59.126Z,93848.53
2023-05-05T00:08:28.017Z,93854.19
2023-05-05T00:10:56.728Z,93854.75
2023-05-05T00:13:25.006Z,93847.66
2023-05-05T00:15:54.260Z,93847.72
2023-05-05T00:18:22.136Z,93833.81
2023-05-05T00:20:50.783Z,93837.06
2023-05-05T00:23:19.788Z,93837.22
2023-05-05T00:25:47.435Z,93833.75
2023-05-05T00:28:15.267Z,93839.44
2023-05-05T00:30:43.384Z,93835.53
2023-05-05T00:33:11.584Z,93836.03
2023-05-05T00:35:39.731Z,93838.88
2023-05-05T00:38:07.824Z,93839.09
2023-05-05T00:40:37.388Z,93846.69
2023-05-05T00:43:05.940Z,93824.31
2023-05-05T00:45:33.775Z,93839.75
2023-05-05T00:48:01.904Z,93840.63
2023-05-05T00:50:31.398Z,93836.34
2023-05-05T00:53:06.158Z,93833.09
2023-05-05T00:55:35.737Z,93839.44
2023-05-05T00:58:06.989Z,93828.09
2023-05-05T01:00:35.511Z,93831.00
2023-05-05T01:03:03.695Z,93826.56
2023-05-05T01:05:56.024Z,93829.63
2023-05-05T01:08:45.567Z,93839.25
2023-05-05T01:11:16.510Z,93841.53
2023-05-05T01:14:17.139Z,93831.25
2023-05-05T01:16:53.979Z,93838.69
2023-05-05T01:19:33.758Z,93838.53
2023-05-05T01:22:06.679Z,93835.97
2023-05-05T01:24:43.258Z,93833.22
2023-05-05T01:27:39.290Z,93831.81
2023-05-05T01:30:25.839Z,93826.50
2023-05-05T01:33:04.199Z,93837.63
2023-05-05T01:35:53.757Z,93839.00
2023-05-05T01:38:41.379Z,93826.63
2023-05-05T01:41:19.842Z,93831.00
2023-05-05T01:43:50.481Z,93826.50
2023-05-05T01:46:21.895Z,93834.75
2023-05-05T01:48:51.455Z,93824.69
2023-05-05T01:51:23.321Z,93810.91
2023-05-05T01:53:54.444Z,93825.69
2023-05-05T01:56:24.836Z,93825.47
2023-05-05T01:58:54.928Z,93827.41
2023-05-05T02:01:26.206Z,93812.56
2023-05-05T02:03:57.051Z,93817.97
2023-05-05T02:06:27.116Z,93804.50
2023-05-05T02:08:58.565Z,93806.72
2023-05-05T02:11:28.508Z,93812.97
2023-05-05T02:13:59.293Z,93816.06
2023-05-05T02:16:28.654Z,93802.53
2023-05-05T02:18:59.663Z,93814.22
2023-05-05T02:21:28.761Z,93815.50
2023-05-05T02:23:56.418Z,93814.09
2023-05-05T02:26:24.987Z,93806.84
2023-05-05T02:29:16.731Z,93812.16
2023-05-05T02:31:49.287Z,93813.53
2023-05-05T02:34:27.755Z,93817.66
2023-05-05T02:36:58.884Z,93814.09
2023-05-05T02:39:35.892Z,93817.56
2023-05-05T02:42:13.280Z,93801.72
2023-05-05T02:44:43.156Z,93794.28
2023-05-05T02:47:12.702Z,93799.06
2023-05-05T02:49:42.347Z,93801.00
2023-05-05T02:54:53.949Z,93791.47
2023-05-05T02:57:36.071Z,93786.16
2023-05-05T03:00:08.338Z,93799.47
2023-05-05T03:03:00.695Z,93801.00
2023-05-05T03:05:57.861Z,93798.44
2023-05-05T03:08:41.453Z,93800.16
2023-05-05T03:11:19.192Z,93804.56
2023-05-05T03:14:00.052Z,93801.97
2023-05-05T03:16:29.968Z,93791.59
2023-05-05T03:18:59.798Z,93801.38
2023-05-05T03:21:28.550Z,93805.41
2023-05-05T03:23:57.942Z,93769.88
2023-05-05T03:26:26.019Z,93803.69
2023-05-05T03:28:53.877Z,93805.22
2023-05-05T03:31:28.664Z,93799.88
2023-05-05T03:34:00.250Z,93802.25
2023-05-05T03:36:33.294Z,93808.69
2023-05-05T03:39:01.688Z,93811.22
2023-05-05T03:41:33.706Z,93814.53
2023-05-05T03:44:02.061Z,93810.88
2023-05-05T03:46:30.610Z,93815.69
2023-05-05T03:48:58.643Z,93823.66
2023-05-05T03:51:28.302Z,93819.25
2023-05-05T03:53:57.092Z,93819.47
2023-05-05T03:56:26.272Z,93823.50
2023-05-05T03:58:54.230Z,93826.69
2023-05-05T04:01:22.148Z,93828.59
2023-05-05T04:03:50.254Z,93814.78
2023-05-05T04:06:18.250Z,93825.66
2023-05-05T04:08:46.762Z,93824.63
2023-05-05T04:11:14.791Z,93818.91
2023-05-05T04:13:43.027Z,93818.31
2023-05-05T04:16:11.196Z,93812.81
2023-05-05T04:18:39.580Z,93821.16
2023-05-05T04:21:07.637Z,93819.09
2023-05-05T04:23:35.895Z,93807.06
2023-05-05T04:26:04.134Z,93818.13
2023-05-05T04:28:32.077Z,93821.63
2023-05-05T04:31:01.442Z,93818.53
2023-05-05T04:33:32.330Z,93828.53
2023-05-05T04:36:00.361Z,93830.72
2023-05-05T04:38:28.833Z,93821.09
2023-05-05T04:40:57.310Z,93835.31
2023-05-05T04:43:25.299Z,93832.41
2023-05-05T04:45:54.252Z,93837.19
2023-05-05T04:48:24.205Z,93833.19
2023-05-05T04:50:53.105Z,93837.78
2023-05-05T04:53:21.077Z,93832.69
2023-05-05T04:55:49.028Z,93839.84
2023-05-05T04:58:18.630Z,93837.78
2023-05-05T05:00:46.912Z,93839.44
2023-05-05T05:03:14.868Z,93849.34
2023-05-05T05:05:42.800Z,93837.63
2023-05-05T05:08:11.199Z,93840.09
2023-05-05T05:10:40.903Z,93840.94
2023-05-05T05:13:10.658Z,93845.38
2023-05-05T05:15:41.071Z,93839.28
2023-05-05T05:18:09.232Z,93849.34
2023-05-05T05:20:37.488Z,93842.47
2023-05-05T05:23:05.434Z,93856.06
2023-05-05T05:25:37.450Z,93862.03
2023-05-05T05:28:09.628Z,93854.03
2023-05-05T05:30:43.815Z,93856.63
2023-05-05T05:33:12.445Z,93857.41
2023-05-05T05:35:41.687Z,93857.91
2023-05-05T05:38:10.691Z,93860.78
2023-05-05T05:40:38.766Z,93860.34
2023-05-05T05:43:06.957Z,93863.13
2023-05-05T05:45:36.216Z,93862.59
2023-05-05T05:48:05.992Z,93864.28
2023-05-05T05:50:36.077Z,93862.94
2023-05-05T05:53:04.231Z,93860.03
2023-05-05T05:55:32.403Z,93863.03
2023-05-05T05:58:00.797Z,93863.50
2023-05-05T06:00:29.419Z,93864.34
2023-05-05T06:03:04.328Z,93847.34
2023-05-05T06:05:36.539Z,93866.66
2023-05-05T06:08:04.937Z,93853.31
2023-05-05T06:10:36.653Z,93871.09
2023-05-05T06:13:12.184Z,93871.22
2023-05-05T06:15:44.122Z,93861.59
2023-05-05T06:18:14.041Z,93864.53
2023-05-05T06:20:43.681Z,93862.03
2023-05-05T06:23:13.476Z,93866.19
2023-05-05T06:25:46.228Z,93855.63
2023-05-05T06:28:14.298Z,93857.06
2023-05-05T06:30:42.339Z,93867.00
2023-05-05T06:33:10.689Z,93866.44
2023-05-05T06:35:38.529Z,93865.63
2023-05-05T06:38:06.751Z,93870.91
2023-05-05T06:40:34.718Z,93871.59
2023-05-05T06:43:03.021Z,93876.13
2023-05-05T06:45:36.499Z,93876.03
2023-05-05T06:48:04.611Z,93875.25
2023-05-05T06:50:32.582Z,93869.69
2023-05-05T06:53:00.947Z,93860.31
2023-05-05T06:55:29.088Z,93864.00
2023-05-05T06:57:57.201Z,93862.44
2023-05-05T07:00:25.149Z,93866.03
2023-05-05T07:02:53.149Z,93865.56
2023-05-05T07:05:21.327Z,93867.88
2023-05-05T07:07:57.097Z,93870.94
2023-05-05T07:10:25.454Z,93873.41
2023-05-05T07:12:55.104Z,93864.59
2023-05-05T07:15:27.398Z,93857.63
2023-05-05T07:17:57.759Z,93860.59
2023-05-05T07:20:25.931Z,93868.25
2023-05-05T07:22:53.782Z,93867.09
2023-05-05T07:25:21.946Z,93870.41
2023-05-05T07:27:49.958Z,93860.06
2023-05-05T07:30:19.025Z,93870.75
2023-05-05T07:32:47.555Z,93855.06
2023-05-05T07:35:15.776Z,93855.50
2023-05-05T07:37:45.802Z,93852.97
2023-05-05T07:40:13.747Z,93849.53
2023-05-05T07:42:41.761Z,93842.28
2023-05-05T07:45:10.129Z,93845.09
2023-05-05T07:47:38.134Z,93848.44
2023-05-05T07:50:07.365Z,93856.81
2023-05-05T07:52:46.466Z,93854.44
2023-05-05T07:55:16.737Z,93849.47
2023-05-05T07:57:44.659Z,93853.25
2023-05-05T08:00:13.701Z,93851.16
2023-05-05T08:02:41.924Z,93851.63
2023-05-05T08:05:10.152Z,93846.13
2023-05-05T08:07:41.666Z,93842.16
2023-05-05T08:10:12.195Z,93842.22
2023-05-05T08:12:40.712Z,93835.13
2023-05-05T08:15:09.425Z,93833.59
2023-05-05T08:17:47.665Z,93834.09
2023-05-05T08:20:17.300Z,93819.94
2023-05-05T08:22:45.739Z,93818.34
2023-05-05T08:25:14.377Z,93812.81
2023-05-05T08:27:43.053Z,93816.88
2023-05-05T08:30:12.034Z,93800.47
2023-05-05T08:32:40.151Z,93811.72
2023-05-05T08:35:08.894Z,93807.63
2023-05-05T08:37:37.168Z,93795.31
2023-05-05T08:40:05.994Z,93797.38
2023-05-05T08:42:38.445Z,93783.16
2023-05-05T08:45:10.019Z,93782.91
2023-05-05T08:47:39.564Z,93772.91
2023-05-05T08:50:10.697Z,93786.69
2023-05-05T08:52:45.826Z,93787.34
2023-05-05T08:55:29.646Z,93783.22
2023-05-05T08:58:01.233Z,93780.97
2023-05-05T09:00:30.861Z,93786.44
2023-05-05T09:03:00.356Z,93788.81
2023-05-05T09:05:28.282Z,93794.72
2023-05-05T09:07:56.374Z,93789.50
2023-05-05T09:10:28.679Z,93797.13
2023-05-05T09:12:57.727Z,93790.03
2023-05-05T09:15:28.453Z,93759.47
2023-05-05T09:17:58.607Z,93804.38
2023-05-05T09:20:34.781Z,93801.56
2023-05-05T09:23:11.133Z,93804.72
2023-05-05T09:25:40.117Z,93808.94
2023-05-05T09:28:10.693Z,93801.34
2023-05-05T09:30:40.131Z,93791.75
2023-05-05T09:33:08.314Z,93783.84
2023-05-05T09:35:55.879Z,93789.13
2023-05-05T09:38:25.301Z,93795.09
2023-05-05T09:40:55.018Z,93802.69
2023-05-05T09:43:24.091Z,93790.59
2023-05-05T09:45:52.237Z,93788.03
2023-05-05T09:48:28.763Z,93787.34
2023-05-05T09:50:58.286Z,93789.00
2023-05-05T09:53:27.437Z,93788.59
2023-05-05T09:55:59.260Z,93780.81
2023-05-05T09:58:30.656Z,93788.75
2023-05-05T10:00:59.552Z,93789.94
2023-05-05T10:03:27.772Z,93786.09
2023-05-05T10:05:59.878Z,93784.56
2023-05-05T10:08:30.837Z,93784.75
2023-05-05T10:11:01.242Z,93777.84
2023-05-05T10:13:30.407Z,93788.59
2023-05-05T10:15:58.951Z,93781.13
2023-05-05T10:18:29.182Z,93780.84
2023-05-05T10:20:59.764Z,93781.56
2023-05-05T10:23:46.863Z,93771.03
2023-05-05T10:26:16.623Z,93777.56
2023-05-05T10:29:11.802Z,93784.91
2023-05-05T10:31:50.123Z,93774.09
2023-05-05T10:34:39.361Z,93782.06
2023-05-05T10:37:07.944Z,93782.22
2023-05-05T10:39:37.109Z,93765.25
2023-05-05T10:42:05.122Z,93782.44
2023-05-05T10:44:33.605Z,93777.22
2023-05-05T10:47:02.161Z,93775.44
2023-05-05T10:49:41.999Z,93771.25
2023-05-05T10:52:21.421Z,93776.38
2023-05-05T10:55:03.483Z,93776.81
2023-05-05T10:57:35.429Z,93775.66
2023-05-05T11:00:04.584Z,93768.53
2023-05-05T11:02:32.668Z,93761.47
2023-05-05T11:05:21.410Z,93758.75
2023-05-05T11:07:51.594Z,93753.69
2023-05-05T11:10:21.229Z,93765.53
2023-05-05T11:12:52.459Z,93763.66
2023-05-05T11:15:26.928Z,93765.75
2023-05-05T11:18:05.021Z,93760.84
2023-05-05T11:20:40.426Z,93762.84
2023-05-05T11:23:08.544Z,93757.16
2023-05-05T11:25:37.066Z,93752.63
2023-05-05T11:28:12.232Z,93749.72
2023-05-05T11:30:55.296Z,93756.84
2023-05-05T11:33:30.560Z,93749.31
2023-05-05T11:36:06.711Z,93743.06
2023-05-05T11:39:18.136Z,93746.81
2023-05-05T11:42:24.746Z,93738.63
2023-05-05T11:44:53.876Z,93752.97
2023-05-05T11:47:21.761Z,93747.25
2023-05-05T11:49:50.099Z,93741.66
2023-05-05T11:52:18.109Z,93745.00
2023-05-05T11:54:50.271Z,93740.53
2023-05-05T11:57:28.213Z,93739.44
2023-05-05T12:00:11.159Z,93739.44
2023-05-05T12:02:39.543Z,93743.63
2023-05-05T12:05:08.360Z,93745.38
2023-05-05T12:07:36.539Z,93741.19
2023-05-05T12:10:05.210Z,93736.63
2023-05-05T12:12:38.289Z,93739.78
2023-05-05T12:15:07.277Z,93739.09
2023-05-05T12:17:40.477Z,93729.19
2023-05-05T12:20:10.142Z,93725.06
2023-05-05T12:22:39.239Z,93719.34
2023-05-05T12:25:08.549Z,93714.91
2023-05-05T12:27:37.135Z,93714.19
2023-05-05T12:30:18.989Z,93706.78
2023-05-05T12:32:47.157Z,93700.59
2023-05-05T12:35:16.241Z,93703.28
2023-05-05T12:37:44.750Z,93704.00
2023-05-05T12:40:45.166Z,93701.28
2023-05-05T12:43:25.340Z,93694.25
2023-05-05T12:46:06.821Z,93683.28
2023-05-05T12:48:38.281Z,93687.78
2023-05-05T12:51:12.784Z,93687.84
2023-05-05T12:53:41.076Z,93679.59
2023-05-05T12:56:40.798Z,93682.44
2023-05-05T12:59:28.969Z,93684.25
2023-05-05T13:02:00.236Z,93682.88
2023-05-05T13:04:29.600Z,93675.25
2023-05-05T13:07:13.214Z,93681.56
2023-05-05T13:09:41.829Z,93685.06
2023-05-05T13:12:12.571Z,93683.66
2023-05-05T13:14:42.127Z,93678.16
2023-05-05T13:17:13.998Z,93673.06
2023-05-05T13:19:48.745Z,93667.25
2023-05-05T13:22:17.377Z,93668.13
2023-05-05T13:24:52.266Z,93664.50
2023-05-05T13:27:21.361Z,93660.22
2023-05-05T13:29:49.244Z,93664.16
2023-05-05T13:32:17.194Z,93657.44
2023-05-05T13:34:45.085Z,93659.06
2023-05-05T13:37:13.153Z,93659.13
2023-05-05T13:39:41.365Z,93652.44
2023-05-05T13:42:09.588Z,93655.06
2023-05-05T13:44:37.793Z,93667.31
2023-05-05T13:47:06.098Z,93666.97
2023-05-05T13:49:35.403Z,93666.16
2023-05-05T13:52:03.510Z,93649.16
2023-05-05T13:54:31.886Z,93663.94
2023-05-05T13:57:00.319Z,93667.00
2023-05-05T13:59:28.515Z,93658.38
2023-05-05T14:01:56.638Z,93664.91
2023-05-05T14:04:25.267Z,93665.88
2023-05-05T14:06:53.713Z,93658.56
2023-05-05T14:09:21.811Z,93666.25
2023-05-05T14:11:49.727Z,93657.53
2023-05-05T14:14:18.296Z,93657.94
2023-05-05T14:16:48.675Z,93650.78
2023-05-05T14:19:18.121Z,93661.06
2023-05-05T14:21:46.275Z,93649.44
2023-05-05T14:24:14.384Z,93655.81
2023-05-05T14:26:42.597Z,93653.03
2023-05-05T14:29:11.144Z,93662.03
2023-05-05T14:31:39.051Z,93670.78
2023-05-05T14:34:07.133Z,93654.34
2023-05-05T14:36:35.227Z,93652.50
2023-05-05T14:39:03.526Z,93653.94
2023-05-05T14:41:31.465Z,93647.44
2023-05-05T14:43:59.560Z,93649.16
2023-05-05T14:46:27.689Z,93631.88
2023-05-05T14:48:55.701Z,93646.91
2023-05-05T14:51:23.675Z,93637.84
2023-05-05T14:53:51.832Z,93642.13
2023-05-05T14:56:22.056Z,93641.84
2023-05-05T14:58:50.318Z,93642.13
2023-05-05T15:01:18.310Z,93646.06
2023-05-05T15:03:46.818Z,93639.22
2023-05-05T15:06:14.742Z,93610.28
2023-05-05T15:08:42.756Z,93634.41
2023-05-05T15:11:11.142Z,93638.56
2023-05-05T15:13:41.737Z,93649.97
2023-05-05T15:16:10.366Z,93650.34
2023-05-05T15:18:38.877Z,93646.56
2023-05-05T15:21:06.882Z,93652.09
2023-05-05T15:23:35.315Z,93653.22
2023-05-05T15:26:04.227Z,93645.22
2023-05-05T15:28:32.418Z,93654.97
2023-05-05T15:31:03.783Z,93640.63
2023-05-05T15:33:31.748Z,93644.41
2023-05-05T15:36:00.588Z,93642.59
2023-05-05T15:38:30.040Z,93650.66
2023-05-05T15:40:58.028Z,93653.84
2023-05-05T15:43:26.289Z,93655.56
2023-05-05T15:45:54.368Z,93649.44
2023-05-05T15:48:22.334Z,93648.25
2023-05-05T15:50:51.064Z,93643.44
2023-05-05T15:53:19.767Z,93648.34
2023-05-05T15:55:48.186Z,93649.72
2023-05-05T15:58:16.477Z,93652.53
2023-05-05T16:00:44.993Z,93648.31
2023-05-05T16:03:13.694Z,93640.44
2023-05-05T16:05:41.972Z,93643.13
2023-05-05T16:08:11.166Z,93647.19
2023-05-05T16:10:39.722Z,93656.97
2023-05-05T16:13:07.716Z,93648.66
2023-05-05T16:15:36.166Z,93638.00
2023-05-05T16:18:04.509Z,93633.06
2023-05-05T16:20:33.185Z,93640.91
2023-05-05T16:23:01.297Z,93648.38
2023-05-05T16:25:29.632Z,93643.31
2023-05-05T16:27:58.088Z,93644.91
2023-05-05T16:30:26.821Z,93641.69
2023-05-05T16:32:55.478Z,93647.84
2023-05-05T16:35:23.911Z,93644.31
2023-05-05T16:37:53.142Z,93651.88
2023-05-05T16:40:21.566Z,93652.50
2023-05-05T16:42:50.162Z,93642.41
2023-05-05T16:45:18.629Z,93648.41
2023-05-05T16:47:47.190Z,93646.19
2023-05-05T16:50:17.673Z,93652.91
2023-05-05T16:52:46.400Z,93650.50
2023-05-05T16:55:15.338Z,93648.94
2023-05-05T16:57:43.539Z,93646.03
2023-05-05T17:00:12.585Z,93638.81
2023-05-05T17:02:41.208Z,93652.75
2023-05-05T17:05:10.027Z,93649.50
2023-05-05T17:07:38.572Z,93654.09
2023-05-05T17:10:07.843Z,93638.03
2023-05-05T17:12:36.337Z,93656.25
2023-05-05T17:15:05.162Z,93642.66
2023-05-05T17:17:33.807Z,93662.78
2023-05-05T17:20:05.071Z,93660.66
2023-05-05T17:22:33.808Z,93662.84
2023-05-05T17:25:02.291Z,93645.69
2023-05-05T17:27:30.635Z,93661.53
2023-05-05T17:29:59.385Z,93663.69
2023-05-05T17:32:27.850Z,93672.56
2023-05-05T17:34:56.765Z,93670.94
2023-05-05T17:37:25.220Z,93673.63
2023-05-05T17:39:53.425Z,93654.59
2023-05-05T17:42:23.253Z,93670.69
2023-05-05T17:44:51.607Z,93672.28
2023-05-05T17:47:22.837Z,93676.84
2023-05-05T17:49:54.047Z,93684.38
2023-05-05T17:52:24.100Z,93684.91
2023-05-05T17:54:52.629Z,93695.13
2023-05-05T17:57:21.549Z,93695.63
2023-05-05T17:59:50.806Z,93697.25
2023-05-05T18:02:19.764Z,93702.63
2023-05-05T18:04:48.225Z,93698.06
2023-05-05T18:07:16.938Z,93711.19
2023-05-05T18:09:45.228Z,93710.38
2023-05-05T18:12:14.077Z,93712.53
2023-05-05T18:14:42.511Z,93710.63
2023-05-05T18:17:10.962Z,93708.75
2023-05-05T18:19:43.346Z,93709.81
2023-05-05T18:22:12.399Z,93715.94
2023-05-05T18:24:41.119Z,93723.44
2023-05-05T18:27:09.410Z,93722.88
2023-05-05T18:29:37.837Z,93721.50
2023-05-05T18:32:06.787Z,93730.31
2023-05-05T18:34:35.405Z,93725.94
2023-05-05T18:37:03.717Z,93725.38
2023-05-05T18:39:31.856Z,93733.88
2023-05-05T18:42:00.456Z,93732.78
2023-05-05T18:44:28.793Z,93736.50
2023-05-05T18:46:57.152Z,93742.56
2023-05-05T18:49:25.685Z,93740.69
2023-05-05T18:51:54.313Z,93732.34
2023-05-05T18:54:23.045Z,93742.81
2023-05-05T18:56:51.689Z,93739.78
2023-05-05T18:59:20.077Z,93740.38
2023-05-05T19:01:48.565Z,93738.72
2023-05-05T19:04:30.270Z,93739.78
2023-05-05T19:07:00.678Z,93737.00
2023-05-05T19:09:29.045Z,93735.09
2023-05-05T19:11:57.440Z,93748.72
2023-05-05T19:14:26.421Z,93753.44
2023-05-05T19:16:56.266Z,93747.97
2023-05-05T19:19:25.617Z,93743.88
2023-05-05T19:21:54.043Z,93743.00
2023-05-05T19:24:22.384Z,93749.09
2023-05-05T19:26:50.788Z,93746.31
2023-05-05T19:29:19.390Z,93752.41
2023-05-05T19:31:47.749Z,93752.63
2023-05-05T19:34:16.371Z,93746.31
2023-05-05T19:36:44.810Z,93744.84
2023-05-05T19:39:15.629Z,93743.66
2023-05-05T19:41:44.702Z,93761.09
2023-05-05T19:44:12.936Z,93715.41
2023-05-05T19:46:41.320Z,93755.88
2023-05-05T19:49:09.832Z,93757.19
2023-05-05T19:51:38.362Z,93751.25
2023-05-05T19:54:06.938Z,93747.41
2023-05-05T19:56:35.217Z,93757.44
2023-05-05T19:59:06.637Z,93756.50
2023-05-05T20:01:35.338Z,93764.25
2023-05-05T20:04:04.494Z,93741.19
2023-05-05T20:06:33.827Z,93762.50
2023-05-05T20:09:02.492Z,93763.31
2023-05-05T20:11:31.536Z,93758.53
2023-05-05T20:14:00.186Z,93758.22
2023-05-05T20:16:28.870Z,93736.91
2023-05-05T20:18:57.267Z,93750.25
2023-05-05T20:21:25.291Z,93749.78
2023-05-05T20:23:54.833Z,93744.06
2023-05-05T20:26:24.732Z,93746.38
2023-05-05T20:28:53.385Z,93750.25
2023-05-05T20:31:22.053Z,93743.09
2023-05-05T20:33:50.591Z,93747.03
2023-05-05T20:36:18.571Z,93745.44
2023-05-05T20:38:46.509Z,93741.63
2023-05-05T20:41:14.921Z,93729.22
2023-05-05T20:43:43.175Z,93742.03
2023-05-05T20:46:13.235Z,93744.84
2023-05-05T20:48:42.978Z,93750.81
2023-05-05T20:51:11.946Z,93693.03
2023-05-05T20:53:40.072Z,93744.91
2023-05-05T20:56:09.246Z,93744.84
2023-05-05T20:58:37.983Z,93737.91
2023-05-05T21:01:06.443Z,93737.41
2023-05-05T21:03:36.445Z,93745.78
2023-05-05T21:06:05.355Z,93731.66
2023-05-05T21:08:33.697Z,93743.69
2023-05-05T21:11:01.924Z,93738.84
2023-05-05T21:13:30.733Z,93742.88
2023-05-05T21:15:58.523Z,93743.06
2023-05-05T21:18:27.793Z,93744.91
2023-05-05T21:20:56.448Z,93747.56
2023-05-05T21:23:24.694Z,93746.59
2023-05-05T21:25:52.760Z,93738.03
2023-05-05T21:28:20.742Z,93748.44
2023-05-05T21:31:10.446Z,93738.84
2023-05-05T21:33:39.577Z,93741.69
2023-05-05T21:36:07.609Z,93736.06
2023-05-05T21:38:35.620Z,93741.56
2023-05-05T21:41:03.934Z,93734.41
2023-05-05T21:43:32.036Z,93739.72
2023-05-05T21:46:04.444Z,93738.78
2023-05-05T21:48:32.920Z,93735.06
2023-05-05T21:51:01.169Z,93731.19
2023-05-05T21:53:29.167Z,93734.97
2023-05-05T21:55:57.283Z,93733.84
2023-05-05T21:58:25.524Z,93738.59
2023-05-05T22:00:53.506Z,93728.94
2023-05-05T22:03:21.797Z,93727.53
2023-05-05T22:05:49.896Z,93719.47
2023-05-05T22:08:19.301Z,93717.19
2023-05-05T22:10:47.709Z,93715.91
2023-05-05T22:13:15.999Z,93725.19
2023-05-05T22:15:47.181Z,93731.56
2023-05-05T22:18:16.225Z,93728.56
2023-05-05T22:20:44.579Z,93724.94
2023-05-05T22:23:14.235Z,93707.72
2023-05-05T22:25:42.339Z,93729.75
2023-05-05T22:28:11.458Z,93722.59
2023-05-05T22:30:39.480Z,93719.97
2023-05-05T22:33:07.508Z,93722.03
2023-05-05T22:35:37.165Z,93721.03
2023-05-05T22:38:06.291Z,93720.13
2023-05-05T22:40:35.214Z,93720.69
2023-05-05T22:43:03.124Z,93723.69
2023-05-05T22:45:31.064Z,93705.44
2023-05-05T22:47:59.174Z,93719.75
2023-05-05T22:50:27.562Z,93720.06
2023-05-05T22:52:55.416Z,93712.97
2023-05-05T22:55:24.627Z,93698.63
2023-05-05T22:57:52.834Z,93708.91
2023-05-05T23:00:20.728Z,93709.25
2023-05-05T23:02:48.830Z,93712.94
2023-05-05T23:05:16.731Z,93700.72
2023-05-05T23:07:44.708Z,93710.91
2023-05-05T23:10:12.517Z,93712.16
2023-05-05T23:12:40.498Z,93702.16
2023-05-05T23:15:09.033Z,93707.72
2023-05-05T23:17:37.150Z,93701.03
2023-05-05T23:20:05.794Z,93710.28
2023-05-05T23:22:33.596Z,93702.00
2023-05-05T23:25:01.381Z,93690.59
2023-05-05T23:27:30.376Z,93696.34
2023-05-05T23:29:58.226Z,93707.13
2023-05-05T23:32:26.155Z,93692.91
2023-05-05T23:34:54.142Z,93705.94
2023-05-05T23:37:23.209Z,93697.31
2023-05-05T23:39:51.107Z,93680.13
2023-05-05T23:42:18.983Z,93674.69
2023-05-05T23:44:46.887Z,93675.75
2023-05-05T23:47:14.662Z,93693.41
2023-05-05T23:49:42.571Z,93686.00
2023-05-05T23:52:11.516Z,93669.81
2023-05-05T23:54:39.571Z,93683.34
2023-05-05T23:57:07.332Z,93687.28
2023-05-05T23:59:35.217Z,93680.47
